Warren, Pennsylvania
Current Conditions -  °F | °C
As of 2:55 PM on Monday 22 Dec 2014 (Local Time) from KJHW Reporting Station
Overcast Overcast  
Wind Chill: 29°   Ceiling: 3900
Heat Index: 36°   Visibility: 10mi
Dew Point: 25°   Wind: 9mph
Humidity: 65%   Direction: 160°SSE
Pressure: 30.02"   Gusts: NA
Location:  41.84°N, 79.14°W
Report Text: KJHW 221955Z 16008KT 10SM OVC039 02/M04 A3002 RMK AO1
Loading
Personal Weather Stations






























Interactive Weather Map New forecast layout! Learn more

10-Day Weather Forecast

Advertisements
Track Severe Weather on mobile